Weather at Seletar Airport

Public forecast

Using degrees Celsius for public forecast. Weather courtesy of forecast.io.

Current aviation weather report (METAR) for Seletar Airport

2024/06/21 00:30 (retrieved 18 minutes ago)

WSSL 210030Z 20006KT 9000 RA FEW015 BKN170 24/24 Q1009

Closest aviation forecast (TAF) to Seletar Airport

Forecast is more than 12 hours old.

Closest forecast is Aden Adde International Airport, 3,514.5 nm (6,508.9 km) W.

2024/06/20 06:54 (retrieved 18 hours ago)

TAF HCMM 200500Z 2006/2112 22015KT 9999 SCT022 TEMPO 2020/2106 21010KT -SHRA OVC020 BECMG 2108/2111 21015KT NSW BKN024